sensor_id;sensor_type;location;lat;lon;timestamp;pressure;altitude;pressure_sealevel;temperature;humidity
84797;BME280;75028;51.374;21.078;2024-01-30T00:00:00;101316.78;;;-0.62;97.98
84797;BME280;75028;51.374;21.078;2024-01-30T00:02:27;101312.91;;;-0.87;97.40
84797;BME280;75028;51.374;21.078;2024-01-30T00:04:52;101316.38;;;-0.90;97.46
84797;BME280;75028;51.374;21.078;2024-01-30T00:07:19;101310.13;;;-0.78;98.02
84797;BME280;75028;51.374;21.078;2024-01-30T00:09:47;101310.28;;;-0.86;97.70
84797;BME280;75028;51.374;21.078;2024-01-30T00:12:14;101306.00;;;-0.91;97.77
84797;BME280;75028;51.374;21.078;2024-01-30T00:14:42;101302.50;;;-0.86;98.29
84797;BME280;75028;51.374;21.078;2024-01-30T00:17:09;101305.19;;;-0.93;97.83
84797;BME280;75028;51.374;21.078;2024-01-30T00:19:35;101302.53;;;-0.89;98.15
84797;BME280;75028;51.374;21.078;2024-01-30T00:22:01;101303.91;;;-0.68;98.76
84797;BME280;75028;51.374;21.078;2024-01-30T00:24:27;101292.34;;;-0.51;98.91
84797;BME280;75028;51.374;21.078;2024-01-30T00:26:53;101302.00;;;-0.56;98.29
84797;BME280;75028;51.374;21.078;2024-01-30T00:29:19;101298.19;;;-0.38;98.39
84797;BME280;75028;51.374;21.078;2024-01-30T00:31:46;101294.66;;;-0.34;97.10
84797;BME280;75028;51.374;21.078;2024-01-30T00:34:12;101287.66;;;-0.31;98.03
84797;BME280;75028;51.374;21.078;2024-01-30T00:36:38;101298.97;;;-0.33;97.33
84797;BME280;75028;51.374;21.078;2024-01-30T00:39:04;101307.94;;;-0.51;96.94
84797;BME280;75028;51.374;21.078;2024-01-30T00:41:33;101301.84;;;-0.50;96.97
84797;BME280;75028;51.374;21.078;2024-01-30T00:43:59;101299.34;;;-0.54;97.50
84797;BME280;75028;51.374;21.078;2024-01-30T00:46:25;101287.94;;;-0.46;97.62
84797;BME280;75028;51.374;21.078;2024-01-30T00:48:51;101280.00;;;-0.38;97.85
84797;BME280;75028;51.374;21.078;2024-01-30T00:51:17;101285.31;;;-0.46;97.23
84797;BME280;75028;51.374;21.078;2024-01-30T00:53:43;101278.31;;;-0.41;97.91
84797;BME280;75028;51.374;21.078;2024-01-30T00:56:09;101279.13;;;-0.37;97.87
84797;BME280;75028;51.374;21.078;2024-01-30T00:58:35;101283.91;;;-0.15;98.50
84797;BME280;75028;51.374;21.078;2024-01-30T01:01:01;101287.00;;;0.04;98.11
84797;BME280;75028;51.374;21.078;2024-01-30T01:03:28;101272.06;;;0.14;96.76
84797;BME280;75028;51.374;21.078;2024-01-30T01:05:54;101274.88;;;0.03;96.69
84797;BME280;75028;51.374;21.078;2024-01-30T01:08:20;101273.53;;;-0.16;96.31
84797;BME280;75028;51.374;21.078;2024-01-30T01:10:46;101267.56;;;-0.23;96.19
84797;BME280;75028;51.374;21.078;2024-01-30T01:13:12;101260.63;;;-0.21;97.02
84797;BME280;75028;51.374;21.078;2024-01-30T01:15:38;101269.19;;;-0.17;97.72
84797;BME280;75028;51.374;21.078;2024-01-30T01:18:04;101259.00;;;-0.26;97.51
84797;BME280;75028;51.374;21.078;2024-01-30T01:20:30;101262.53;;;-0.29;96.90
84797;BME280;75028;51.374;21.078;2024-01-30T01:22:56;101251.47;;;-0.41;96.24
84797;BME280;75028;51.374;21.078;2024-01-30T01:25:23;101258.50;;;-0.46;96.02
84797;BME280;75028;51.374;21.078;2024-01-30T01:27:49;101250.13;;;-0.60;97.04
84797;BME280;75028;51.374;21.078;2024-01-30T01:30:17;101248.53;;;-0.69;97.27
84797;BME280;75028;51.374;21.078;2024-01-30T01:32:48;101248.75;;;-0.82;97.05
84797;BME280;75028;51.374;21.078;2024-01-30T01:35:22;101252.38;;;-0.92;97.66
84797;BME280;75028;51.374;21.078;2024-01-30T01:37:49;101246.59;;;-1.09;97.71
84797;BME280;75028;51.374;21.078;2024-01-30T01:40:24;101238.88;;;-1.12;98.20
84797;BME280;75028;51.374;21.078;2024-01-30T01:42:51;101239.69;;;-1.09;98.74
84797;BME280;75028;51.374;21.078;2024-01-30T01:45:21;101244.34;;;-1.30;97.69
84797;BME280;75028;51.374;21.078;2024-01-30T01:47:51;101236.34;;;-1.17;98.78
84797;BME280;75028;51.374;21.078;2024-01-30T01:50:18;101219.88;;;-1.14;98.51
84797;BME280;75028;51.374;21.078;2024-01-30T01:52:48;101225.81;;;-1.06;98.35
84797;BME280;75028;51.374;21.078;2024-01-30T01:55:16;101231.78;;;-1.01;98.29
84797;BME280;75028;51.374;21.078;2024-01-30T01:57:44;101234.25;;;-0.94;98.47
84797;BME280;75028;51.374;21.078;2024-01-30T02:00:12;101223.94;;;-0.98;98.43
84797;BME280;75028;51.374;21.078;2024-01-30T02:02:39;101220.94;;;-0.74;99.02
84797;BME280;75028;51.374;21.078;2024-01-30T02:05:05;101227.69;;;-0.64;98.78
84797;BME280;75028;51.374;21.078;2024-01-30T02:07:31;101223.91;;;-0.48;98.47
84797;BME280;75028;51.374;21.078;2024-01-30T02:09:57;101216.69;;;-0.34;98.19
84797;BME280;75028;51.374;21.078;2024-01-30T02:12:23;101215.63;;;-0.24;98.30
84797;BME280;75028;51.374;21.078;2024-01-30T02:14:50;101216.47;;;-0.22;98.51
84797;BME280;75028;51.374;21.078;2024-01-30T02:17:16;101216.63;;;-0.31;98.03
84797;BME280;75028;51.374;21.078;2024-01-30T02:19:43;101214.88;;;-0.29;98.11
84797;BME280;75028;51.374;21.078;2024-01-30T02:22:09;101214.19;;;-0.37;97.18
84797;BME280;75028;51.374;21.078;2024-01-30T02:24:35;101212.25;;;-0.28;97.32
84797;BME280;75028;51.374;21.078;2024-01-30T02:27:01;101215.75;;;-0.29;97.43
84797;BME280;75028;51.374;21.078;2024-01-30T02:29:27;101210.47;;;-0.27;96.72
84797;BME280;75028;51.374;21.078;2024-01-30T02:31:53;101210.94;;;-0.07;96.92
84797;BME280;75028;51.374;21.078;2024-01-30T02:34:19;101207.78;;;-0.21;96.09
84797;BME280;75028;51.374;21.078;2024-01-30T02:36:45;101210.31;;;-0.18;97.09
84797;BME280;75028;51.374;21.078;2024-01-30T02:39:11;101207.03;;;-0.26;96.17
84797;BME280;75028;51.374;21.078;2024-01-30T02:41:37;101209.53;;;-0.22;97.38
84797;BME280;75028;51.374;21.078;2024-01-30T02:44:04;101206.03;;;-0.21;96.77
84797;BME280;75028;51.374;21.078;2024-01-30T02:46:30;101200.97;;;-0.27;96.18
84797;BME280;75028;51.374;21.078;2024-01-30T02:48:56;101206.81;;;-0.17;96.75
84797;BME280;75028;51.374;21.078;2024-01-30T02:51:22;101201.69;;;-0.19;96.57
84797;BME280;75028;51.374;21.078;2024-01-30T02:53:49;101212.06;;;-0.19;96.86
84797;BME280;75028;51.374;21.078;2024-01-30T02:56:14;101198.47;;;-0.33;96.27
84797;BME280;75028;51.374;21.078;2024-01-30T02:58:41;101200.16;;;-0.29;96.71
84797;BME280;75028;51.374;21.078;2024-01-30T03:01:07;101194.13;;;-0.31;96.97
84797;BME280;75028;51.374;21.078;2024-01-30T03:03:33;101194.03;;;-0.26;96.61
84797;BME280;75028;51.374;21.078;2024-01-30T03:06:02;101190.34;;;-0.16;96.49
84797;BME280;75028;51.374;21.078;2024-01-30T03:08:28;101195.63;;;-0.19;96.70
84797;BME280;75028;51.374;21.078;2024-01-30T03:10:54;101196.66;;;-0.28;96.48
84797;BME280;75028;51.374;21.078;2024-01-30T03:13:21;101187.16;;;-0.29;96.61
84797;BME280;75028;51.374;21.078;2024-01-30T03:15:49;101188.25;;;-0.40;96.10
84797;BME280;75028;51.374;21.078;2024-01-30T03:18:15;101184.69;;;-0.36;96.25
84797;BME280;75028;51.374;21.078;2024-01-30T03:20:41;101197.84;;;-0.45;96.11
84797;BME280;75028;51.374;21.078;2024-01-30T03:23:07;101194.13;;;-0.31;96.40
84797;BME280;75028;51.374;21.078;2024-01-30T03:25:33;101177.00;;;-0.41;96.79
84797;BME280;75028;51.374;21.078;2024-01-30T03:27:59;101198.75;;;-0.46;96.85
84797;BME280;75028;51.374;21.078;2024-01-30T03:30:25;101196.94;;;-0.43;96.73
84797;BME280;75028;51.374;21.078;2024-01-30T03:32:51;101192.81;;;-0.53;97.10
84797;BME280;75028;51.374;21.078;2024-01-30T03:35:19;101180.94;;;-0.64;96.71
84797;BME280;75028;51.374;21.078;2024-01-30T03:37:46;101192.38;;;-0.74;96.32
84797;BME280;75028;51.374;21.078;2024-01-30T03:40:12;101188.03;;;-0.75;97.45
84797;BME280;75028;51.374;21.078;2024-01-30T03:42:39;101189.41;;;-0.55;98.12
84797;BME280;75028;51.374;21.078;2024-01-30T03:45:05;101182.78;;;-0.72;97.08
84797;BME280;75028;51.374;21.078;2024-01-30T03:47:31;101184.44;;;-0.68;97.15
84797;BME280;75028;51.374;21.078;2024-01-30T03:49:58;101181.75;;;-0.62;97.58
84797;BME280;75028;51.374;21.078;2024-01-30T03:52:24;101173.75;;;-0.52;97.66
84797;BME280;75028;51.374;21.078;2024-01-30T03:54:50;101178.09;;;-0.52;97.13
84797;BME280;75028;51.374;21.078;2024-01-30T03:57:16;101183.19;;;-0.48;97.42
84797;BME280;75028;51.374;21.078;2024-01-30T03:59:42;101180.34;;;-0.36;97.29
84797;BME280;75028;51.374;21.078;2024-01-30T04:02:10;101177.75;;;-0.36;96.21
84797;BME280;75028;51.374;21.078;2024-01-30T04:04:37;101173.13;;;-0.20;96.17
84797;BME280;75028;51.374;21.078;2024-01-30T04:07:03;101173.31;;;-0.31;96.04
84797;BME280;75028;51.374;21.078;2024-01-30T04:09:29;101160.91;;;-0.17;96.29
84797;BME280;75028;51.374;21.078;2024-01-30T04:11:55;101176.53;;;-0.18;95.87
84797;BME280;75028;51.374;21.078;2024-01-30T04:14:21;101169.69;;;-0.22;95.57
84797;BME280;75028;51.374;21.078;2024-01-30T04:16:47;101162.72;;;-0.20;95.99
84797;BME280;75028;51.374;21.078;2024-01-30T04:19:13;101179.09;;;-0.17;95.64
84797;BME280;75028;51.374;21.078;2024-01-30T04:21:39;101170.19;;;-0.05;95.39
84797;BME280;75028;51.374;21.078;2024-01-30T04:24:06;101167.78;;;-0.14;95.55
84797;BME280;75028;51.374;21.078;2024-01-30T04:26:32;101171.34;;;-0.20;95.04
84797;BME280;75028;51.374;21.078;2024-01-30T04:28:58;101172.22;;;-0.19;95.51
84797;BME280;75028;51.374;21.078;2024-01-30T04:31:25;101180.69;;;-0.10;95.21
84797;BME280;75028;51.374;21.078;2024-01-30T04:33:52;101177.00;;;0.00;94.31
84797;BME280;75028;51.374;21.078;2024-01-30T04:36:19;101178.97;;;-0.11;94.76
84797;BME280;75028;51.374;21.078;2024-01-30T04:38:45;101189.06;;;0.03;94.57
84797;BME280;75028;51.374;21.078;2024-01-30T04:41:11;101178.78;;;-0.02;94.74
84797;BME280;75028;51.374;21.078;2024-01-30T04:43:37;101190.19;;;-0.09;94.54
84797;BME280;75028;51.374;21.078;2024-01-30T04:46:04;101184.13;;;-0.08;94.35
84797;BME280;75028;51.374;21.078;2024-01-30T04:48:30;101186.59;;;-0.02;94.88
84797;BME280;75028;51.374;21.078;2024-01-30T04:50:56;101189.88;;;0.07;94.12
84797;BME280;75028;51.374;21.078;2024-01-30T04:53:22;101184.88;;;-0.04;94.58
84797;BME280;75028;51.374;21.078;2024-01-30T04:55:49;101187.50;;;-0.06;94.43
84797;BME280;75028;51.374;21.078;2024-01-30T04:58:15;101178.53;;;0.09;94.17
84797;BME280;75028;51.374;21.078;2024-01-30T05:00:41;101189.31;;;-0.08;94.39
84797;BME280;75028;51.374;21.078;2024-01-30T05:03:07;101195.44;;;-0.10;94.97
84797;BME280;75028;51.374;21.078;2024-01-30T05:05:33;101188.56;;;-0.14;94.47
84797;BME280;75028;51.374;21.078;2024-01-30T05:07:59;101187.81;;;-0.19;94.64
84797;BME280;75028;51.374;21.078;2024-01-30T05:10:25;101195.56;;;-0.16;94.94
84797;BME280;75028;51.374;21.078;2024-01-30T05:12:51;101188.38;;;-0.05;94.26
84797;BME280;75028;51.374;21.078;2024-01-30T05:15:17;101187.50;;;-0.04;94.64
84797;BME280;75028;51.374;21.078;2024-01-30T05:17:43;101186.72;;;-0.08;94.25
84797;BME280;75028;51.374;21.078;2024-01-30T05:20:10;101187.50;;;-0.06;94.48
84797;BME280;75028;51.374;21.078;2024-01-30T05:22:36;101191.13;;;-0.13;94.72
84797;BME280;75028;51.374;21.078;2024-01-30T05:25:04;101191.16;;;-0.14;94.17
84797;BME280;75028;51.374;21.078;2024-01-30T05:27:30;101193.81;;;-0.17;94.35
84797;BME280;75028;51.374;21.078;2024-01-30T05:29:56;101195.56;;;-0.16;95.32
84797;BME280;75028;51.374;21.078;2024-01-30T05:32:22;101199.22;;;-0.26;94.63
84797;BME280;75028;51.374;21.078;2024-01-30T05:34:48;101193.41;;;-0.37;94.38
84797;BME280;75028;51.374;21.078;2024-01-30T05:37:16;101197.06;;;-0.47;94.76
84797;BME280;75028;51.374;21.078;2024-01-30T05:39:43;101192.78;;;-0.51;95.72
84797;BME280;75028;51.374;21.078;2024-01-30T05:42:09;101194.38;;;-0.44;95.41
84797;BME280;75028;51.374;21.078;2024-01-30T05:44:36;101175.66;;;-0.61;94.40
84797;BME280;75028;51.374;21.078;2024-01-30T05:47:02;101187.53;;;-0.48;94.86
84797;BME280;75028;51.374;21.078;2024-01-30T05:49:28;101190.28;;;-0.56;94.40
84797;BME280;75028;51.374;21.078;2024-01-30T05:51:54;101186.13;;;-0.64;95.36
84797;BME280;75028;51.374;21.078;2024-01-30T05:54:21;101186.88;;;-0.59;96.21
84797;BME280;75028;51.374;21.078;2024-01-30T05:56:46;101192.94;;;-0.59;95.87
84797;BME280;75028;51.374;21.078;2024-01-30T05:59:13;101193.72;;;-0.55;95.77
84797;BME280;75028;51.374;21.078;2024-01-30T06:01:45;101191.09;;;-0.54;95.43
84797;BME280;75028;51.374;21.078;2024-01-30T06:04:12;101203.31;;;-0.57;94.83
84797;BME280;75028;51.374;21.078;2024-01-30T06:06:38;101199.50;;;-0.41;94.86
84797;BME280;75028;51.374;21.078;2024-01-30T06:09:04;101199.50;;;-0.41;94.49
84797;BME280;75028;51.374;21.078;2024-01-30T06:11:30;101198.66;;;-0.40;94.74
84797;BME280;75028;51.374;21.078;2024-01-30T06:13:56;101195.50;;;-0.57;94.26
84797;BME280;75028;51.374;21.078;2024-01-30T06:16:22;101202.31;;;-0.50;94.73
84797;BME280;75028;51.374;21.078;2024-01-30T06:18:48;101196.16;;;-0.46;95.25
84797;BME280;75028;51.374;21.078;2024-01-30T06:21:14;101198.13;;;-0.57;94.30
84797;BME280;75028;51.374;21.078;2024-01-30T06:23:41;101198.69;;;-0.42;94.65
84797;BME280;75028;51.374;21.078;2024-01-30T06:26:07;101203.81;;;-0.39;94.62
84797;BME280;75028;51.374;21.078;2024-01-30T06:28:33;101202.16;;;-0.44;93.70
84797;BME280;75028;51.374;21.078;2024-01-30T06:31:01;101205.59;;;-0.42;94.32
84797;BME280;75028;51.374;21.078;2024-01-30T06:33:27;101203.13;;;-0.50;94.71
84797;BME280;75028;51.374;21.078;2024-01-30T06:35:53;101206.50;;;-0.43;94.04
84797;BME280;75028;51.374;21.078;2024-01-30T06:38:19;101208.09;;;-0.36;93.97
84797;BME280;75028;51.374;21.078;2024-01-30T06:40:45;101207.19;;;-0.35;94.21
84797;BME280;75028;51.374;21.078;2024-01-30T06:43:11;101198.63;;;-0.39;94.26
84797;BME280;75028;51.374;21.078;2024-01-30T06:45:37;101204.69;;;-0.40;94.79
84797;BME280;75028;51.374;21.078;2024-01-30T06:48:04;101215.09;;;-0.41;94.61
84797;BME280;75028;51.374;21.078;2024-01-30T06:50:30;101203.94;;;-0.45;93.86
84797;BME280;75028;51.374;21.078;2024-01-30T06:52:56;101200.75;;;-0.60;93.42
84797;BME280;75028;51.374;21.078;2024-01-30T06:55:22;101202.69;;;-0.27;93.44
84797;BME280;75028;51.374;21.078;2024-01-30T06:57:48;101201.75;;;-0.22;94.23
84797;BME280;75028;51.374;21.078;2024-01-30T07:00:14;101205.06;;;-0.15;93.75
84797;BME280;75028;51.374;21.078;2024-01-30T07:02:41;101201.59;;;-0.16;92.47
84797;BME280;75028;51.374;21.078;2024-01-30T07:05:07;101204.03;;;-0.08;91.65
84797;BME280;75028;51.374;21.078;2024-01-30T07:07:34;101198.19;;;-0.18;91.78
84797;BME280;75028;51.374;21.078;2024-01-30T07:09:59;101199.19;;;-0.25;91.96
84797;BME280;75028;51.374;21.078;2024-01-30T07:12:26;101193.66;;;-0.08;92.04
84797;BME280;75028;51.374;21.078;2024-01-30T07:14:52;101200.91;;;0.18;90.84
84797;BME280;75028;51.374;21.078;2024-01-30T07:17:18;101199.78;;;0.29;90.61
84797;BME280;75028;51.374;21.078;2024-01-30T07:19:44;101200.16;;;0.51;89.72
84797;BME280;75028;51.374;21.078;2024-01-30T07:22:10;101183.28;;;0.29;90.44
84797;BME280;75028;51.374;21.078;2024-01-30T07:24:36;101204.66;;;0.44;91.20
84797;BME280;75028;51.374;21.078;2024-01-30T07:27:08;101194.41;;;0.37;91.18
84797;BME280;75028;51.374;21.078;2024-01-30T07:29:34;101182.94;;;0.45;90.02
84797;BME280;75028;51.374;21.078;2024-01-30T07:32:00;101194.66;;;0.63;88.98
84797;BME280;75028;51.374;21.078;2024-01-30T07:34:26;101188.44;;;0.70;89.74
84797;BME280;75028;51.374;21.078;2024-01-30T07:36:53;101188.06;;;0.83;88.14
84797;BME280;75028;51.374;21.078;2024-01-30T07:39:19;101193.16;;;0.89;88.73
84797;BME280;75028;51.374;21.078;2024-01-30T07:41:45;101200.00;;;0.92;88.20
84797;BME280;75028;51.374;21.078;2024-01-30T07:44:11;101193.69;;;1.02;88.17
84797;BME280;75028;51.374;21.078;2024-01-30T07:46:37;101193.38;;;1.14;87.10
84797;BME280;75028;51.374;21.078;2024-01-30T07:49:04;101192.38;;;1.19;88.67
84797;BME280;75028;51.374;21.078;2024-01-30T07:51:30;101191.97;;;1.34;87.19
84797;BME280;75028;51.374;21.078;2024-01-30T07:53:57;101195.19;;;1.44;85.68
84797;BME280;75028;51.374;21.078;2024-01-30T07:56:24;101185.56;;;1.46;86.78
84797;BME280;75028;51.374;21.078;2024-01-30T07:58:49;101192.25;;;1.56;85.48
84797;BME280;75028;51.374;21.078;2024-01-30T08:01:16;101197.50;;;1.54;85.97
84797;BME280;75028;51.374;21.078;2024-01-30T08:03:42;101202.44;;;1.65;85.87
84797;BME280;75028;51.374;21.078;2024-01-30T08:06:09;101192.41;;;1.80;83.85
84797;BME280;75028;51.374;21.078;2024-01-30T08:08:36;101196.59;;;1.86;83.51
84797;BME280;75028;51.374;21.078;2024-01-30T08:11:03;101197.59;;;2.11;82.82
84797;BME280;75028;51.374;21.078;2024-01-30T08:13:29;101198.91;;;2.25;82.26
84797;BME280;75028;51.374;21.078;2024-01-30T08:15:55;101202.59;;;2.47;81.44
84797;BME280;75028;51.374;21.078;2024-01-30T08:18:21;101203.50;;;2.72;78.93
84797;BME280;75028;51.374;21.078;2024-01-30T08:20:48;101204.84;;;2.86;80.17
84797;BME280;75028;51.374;21.078;2024-01-30T08:23:14;101208.34;;;2.85;78.99
84797;BME280;75028;51.374;21.078;2024-01-30T08:25:41;101202.47;;;3.04;77.55
84797;BME280;75028;51.374;21.078;2024-01-30T08:28:07;101196.22;;;3.08;78.48
84797;BME280;75028;51.374;21.078;2024-01-30T08:30:34;101193.00;;;3.02;76.99
84797;BME280;75028;51.374;21.078;2024-01-30T08:32:59;101188.69;;;3.01;77.70
84797;BME280;75028;51.374;21.078;2024-01-30T08:35:26;101200.81;;;3.02;78.27
84797;BME280;75028;51.374;21.078;2024-01-30T08:37:52;101201.38;;;3.11;77.89
84797;BME280;75028;51.374;21.078;2024-01-30T08:40:20;101196.91;;;3.15;77.77
84797;BME280;75028;51.374;21.078;2024-01-30T08:42:46;101195.41;;;3.08;78.44
84797;BME280;75028;51.374;21.078;2024-01-30T08:45:12;101204.19;;;3.05;76.99
84797;BME280;75028;51.374;21.078;2024-01-30T08:47:38;101191.25;;;3.02;79.14
84797;BME280;75028;51.374;21.078;2024-01-30T08:50:05;101191.28;;;3.01;77.98
84797;BME280;75028;51.374;21.078;2024-01-30T08:52:31;101194.50;;;3.09;76.99
84797;BME280;75028;51.374;21.078;2024-01-30T08:54:57;101199.31;;;3.21;76.86
84797;BME280;75028;51.374;21.078;2024-01-30T08:57:23;101188.53;;;3.30;77.21
84797;BME280;75028;51.374;21.078;2024-01-30T08:59:50;101189.19;;;3.36;76.97
84797;BME280;75028;51.374;21.078;2024-01-30T09:02:16;101192.31;;;3.46;76.05
84797;BME280;75028;51.374;21.078;2024-01-30T09:04:44;101192.06;;;3.53;76.27
84797;BME280;75028;51.374;21.078;2024-01-30T09:07:10;101190.41;;;3.98;73.94
84797;BME280;75028;51.374;21.078;2024-01-30T09:09:39;101180.44;;;3.85;76.18
84797;BME280;75028;51.374;21.078;2024-01-30T09:12:08;101183.97;;;3.84;76.08
84797;BME280;75028;51.374;21.078;2024-01-30T09:14:38;101183.34;;;3.77;74.88
84797;BME280;75028;51.374;21.078;2024-01-30T09:17:04;101183.19;;;3.82;77.47
84797;BME280;75028;51.374;21.078;2024-01-30T09:19:31;101170.72;;;3.88;76.17
84797;BME280;75028;51.374;21.078;2024-01-30T09:21:57;101177.31;;;3.98;75.01
84797;BME280;75028;51.374;21.078;2024-01-30T09:24:23;101168.09;;;3.88;74.11
84797;BME280;75028;51.374;21.078;2024-01-30T09:26:49;101160.03;;;3.94;74.44
84797;BME280;75028;51.374;21.078;2024-01-30T09:29:15;101164.06;;;4.03;75.00
84797;BME280;75028;51.374;21.078;2024-01-30T09:31:45;101159.91;;;4.20;75.11
84797;BME280;75028;51.374;21.078;2024-01-30T09:34:12;101168.28;;;4.28;74.47
84797;BME280;75028;51.374;21.078;2024-01-30T09:36:38;101164.69;;;4.31;73.48
84797;BME280;75028;51.374;21.078;2024-01-30T09:39:04;101159.84;;;4.43;72.40
84797;BME280;75028;51.374;21.078;2024-01-30T09:41:33;101154.94;;;4.57;73.49
84797;BME280;75028;51.374;21.078;2024-01-30T09:44:05;101150.50;;;4.58;75.38
84797;BME280;75028;51.374;21.078;2024-01-30T09:46:34;101160.63;;;4.67;72.11
84797;BME280;75028;51.374;21.078;2024-01-30T09:49:02;101156.50;;;4.83;70.48
84797;BME280;75028;51.374;21.078;2024-01-30T09:51:29;101152.22;;;5.00;70.05
84797;BME280;75028;51.374;21.078;2024-01-30T09:53:56;101157.53;;;4.99;73.82
84797;BME280;75028;51.374;21.078;2024-01-30T09:56:22;101157.06;;;4.89;73.20
84797;BME280;75028;51.374;21.078;2024-01-30T09:58:48;101145.94;;;5.24;69.22
84797;BME280;75028;51.374;21.078;2024-01-30T10:01:15;101143.66;;;5.17;72.84
84797;BME280;75028;51.374;21.078;2024-01-30T10:03:44;101146.28;;;5.57;69.53
84797;BME280;75028;51.374;21.078;2024-01-30T10:06:11;101141.19;;;5.73;69.58
84797;BME280;75028;51.374;21.078;2024-01-30T10:08:37;101139.97;;;6.18;66.49
84797;BME280;75028;51.374;21.078;2024-01-30T10:11:04;101132.34;;;6.49;67.51
84797;BME280;75028;51.374;21.078;2024-01-30T10:13:32;101137.00;;;6.78;65.29
84797;BME280;75028;51.374;21.078;2024-01-30T10:16:00;101129.69;;;6.85;70.14
84797;BME280;75028;51.374;21.078;2024-01-30T10:18:30;101140.59;;;6.94;71.07
84797;BME280;75028;51.374;21.078;2024-01-30T10:20:59;101129.38;;;7.25;63.25
84797;BME280;75028;51.374;21.078;2024-01-30T10:23:25;101128.66;;;7.21;63.42
84797;BME280;75028;51.374;21.078;2024-01-30T10:25:51;101120.88;;;7.52;62.15
84797;BME280;75028;51.374;21.078;2024-01-30T10:28:18;101122.59;;;8.02;58.99
84797;BME280;75028;51.374;21.078;2024-01-30T10:30:44;101124.53;;;8.31;60.23
84797;BME280;75028;51.374;21.078;2024-01-30T10:33:10;101117.53;;;8.45;59.69
84797;BME280;75028;51.374;21.078;2024-01-30T10:35:36;101122.94;;;8.73;59.14
84797;BME280;75028;51.374;21.078;2024-01-30T10:38:02;101113.16;;;9.05;60.11
84797;BME280;75028;51.374;21.078;2024-01-30T10:40:29;101107.66;;;9.23;56.02
84797;BME280;75028;51.374;21.078;2024-01-30T10:42:56;101108.81;;;9.33;58.71
84797;BME280;75028;51.374;21.078;2024-01-30T10:45:26;101102.03;;;9.57;55.50
84797;BME280;75028;51.374;21.078;2024-01-30T10:47:55;101093.63;;;9.79;54.14
84797;BME280;75028;51.374;21.078;2024-01-30T10:50:25;101098.91;;;10.07;54.39
84797;BME280;75028;51.374;21.078;2024-01-30T10:52:55;101084.13;;;10.31;52.07
84797;BME280;75028;51.374;21.078;2024-01-30T10:55:23;101081.31;;;10.20;53.91
84797;BME280;75028;51.374;21.078;2024-01-30T10:57:51;101075.22;;;10.32;55.09
84797;BME280;75028;51.374;21.078;2024-01-30T11:00:19;101083.72;;;10.37;52.33
84797;BME280;75028;51.374;21.078;2024-01-30T11:02:49;101081.06;;;10.64;53.27
84797;BME280;75028;51.374;21.078;2024-01-30T11:05:23;101084.16;;;10.70;50.56
84797;BME280;75028;51.374;21.078;2024-01-30T11:07:50;101069.78;;;10.74;48.23
84797;BME280;75028;51.374;21.078;2024-01-30T11:10:17;101069.41;;;10.93;43.71
84797;BME280;75028;51.374;21.078;2024-01-30T11:12:45;101065.47;;;10.98;44.84
84797;BME280;75028;51.374;21.078;2024-01-30T11:15:14;101068.44;;;11.19;48.16
84797;BME280;75028;51.374;21.078;2024-01-30T11:20:27;101061.91;;;11.37;41.61
84797;BME280;75028;51.374;21.078;2024-01-30T11:22:57;101058.31;;;11.25;43.65
84797;BME280;75028;51.374;21.078;2024-01-30T11:25:25;101054.28;;;11.32;43.78
84797;BME280;75028;51.374;21.078;2024-01-30T11:27:55;101046.63;;;11.40;42.57
84797;BME280;75028;51.374;21.078;2024-01-30T11:33:08;101026.00;;;11.33;42.46
84797;BME280;75028;51.374;21.078;2024-01-30T11:38:08;101041.13;;;11.43;41.60
84797;BME280;75028;51.374;21.078;2024-01-30T11:40:37;101035.53;;;11.23;41.10
84797;BME280;75028;51.374;21.078;2024-01-30T11:43:05;101035.09;;;11.29;45.05
84797;BME280;75028;51.374;21.078;2024-01-30T11:45:32;101031.25;;;11.20;43.01
84797;BME280;75028;51.374;21.078;2024-01-30T11:47:58;101032.88;;;11.23;47.86
84797;BME280;75028;51.374;21.078;2024-01-30T11:50:30;101025.41;;;10.78;44.03
84797;BME280;75028;51.374;21.078;2024-01-30T11:52:56;101013.34;;;10.74;44.62
84797;BME280;75028;51.374;21.078;2024-01-30T11:55:23;101018.13;;;10.69;43.09
84797;BME280;75028;51.374;21.078;2024-01-30T11:57:49;101016.03;;;10.47;42.86
84797;BME280;75028;51.374;21.078;2024-01-30T12:00:19;101013.41;;;10.47;42.41
84797;BME280;75028;51.374;21.078;2024-01-30T12:02:53;101016.66;;;10.77;47.21
84797;BME280;75028;51.374;21.078;2024-01-30T12:05:23;101007.22;;;10.98;44.70
84797;BME280;75028;51.374;21.078;2024-01-30T12:07:50;101012.53;;;11.23;41.89
84797;BME280;75028;51.374;21.078;2024-01-30T12:10:16;101019.44;;;11.26;44.79
84797;BME280;75028;51.374;21.078;2024-01-30T12:12:46;101011.78;;;11.34;40.17
84797;BME280;75028;51.374;21.078;2024-01-30T12:15:13;101006.47;;;10.96;42.27
84797;BME280;75028;51.374;21.078;2024-01-30T12:17:40;101006.47;;;10.96;42.49
84797;BME280;75028;51.374;21.078;2024-01-30T12:20:09;101007.66;;;10.92;43.32
84797;BME280;75028;51.374;21.078;2024-01-30T12:22:38;101001.69;;;10.64;41.25
84797;BME280;75028;51.374;21.078;2024-01-30T12:25:12;100999.81;;;10.78;44.65
84797;BME280;75028;51.374;21.078;2024-01-30T12:27:41;101006.88;;;10.65;44.51
84797;BME280;75028;51.374;21.078;2024-01-30T12:30:08;101006.75;;;10.54;47.89
84797;BME280;75028;51.374;21.078;2024-01-30T12:32:40;101007.56;;;10.42;44.55
84797;BME280;75028;51.374;21.078;2024-01-30T12:35:10;101006.31;;;10.21;43.33
84797;BME280;75028;51.374;21.078;2024-01-30T12:37:37;101001.81;;;10.09;43.98
84797;BME280;75028;51.374;21.078;2024-01-30T12:40:04;101002.38;;;10.14;43.12
84797;BME280;75028;51.374;21.078;2024-01-30T12:42:31;100988.25;;;10.27;47.18
84797;BME280;75028;51.374;21.078;2024-01-30T12:44:58;100992.63;;;10.41;47.43
84797;BME280;75028;51.374;21.078;2024-01-30T12:47:27;100994.41;;;10.41;47.64